createdAt,value
2017-08-16T00:00:29.205Z,31.30
2017-08-16T00:02:57.292Z,30.03
2017-08-16T00:05:29.065Z,33.83
2017-08-16T00:07:57.154Z,30.20
2017-08-16T00:10:25.249Z,39.40
2017-08-16T00:12:53.342Z,33.23
2017-08-16T00:15:21.452Z,34.13
2017-08-16T00:17:49.536Z,33.27
2017-08-16T00:20:17.642Z,29.80
2017-08-16T00:22:45.720Z,35.17
2017-08-16T00:25:13.850Z,32.00
2017-08-16T00:27:41.933Z,30.27
2017-08-16T00:30:10.033Z,33.70
2017-08-16T00:32:38.148Z,35.63
2017-08-16T00:35:06.245Z,31.73
2017-08-16T00:37:34.329Z,31.30
2017-08-16T00:40:03.349Z,29.80
2017-08-16T00:42:31.520Z,31.60
2017-08-16T00:44:59.602Z,41.20
2017-08-16T00:47:27.697Z,40.67
2017-08-16T00:49:56.562Z,29.63
2017-08-16T00:52:24.677Z,37.10
2017-08-16T00:54:52.759Z,40.30
2017-08-16T00:57:20.875Z,39.13
2017-08-16T00:59:48.994Z,33.87
2017-08-16T01:02:17.088Z,36.70
2017-08-16T01:04:45.195Z,41.00
2017-08-16T01:07:16.915Z,31.90
2017-08-16T01:09:45.045Z,39.60
2017-08-16T01:12:16.148Z,38.53
2017-08-16T01:14:44.248Z,33.80
2017-08-16T01:17:12.355Z,39.13
2017-08-16T01:19:40.452Z,38.43
2017-08-16T01:22:08.564Z,33.83
2017-08-16T01:24:36.653Z,36.73
2017-08-16T01:27:04.750Z,36.67
2017-08-16T01:29:32.850Z,36.10
2017-08-16T01:32:01.416Z,35.00
2017-08-16T01:34:32.681Z,39.37
2017-08-16T01:37:00.780Z,37.00
2017-08-16T01:39:28.882Z,33.10
2017-08-16T01:41:56.976Z,40.60
2017-08-16T01:44:25.078Z,35.17
2017-08-16T01:46:53.203Z,37.50
2017-08-16T01:49:22.096Z,45.20
2017-08-16T01:51:50.978Z,43.40
2017-08-16T01:54:19.820Z,44.10
2017-08-16T01:56:47.942Z,42.77
2017-08-16T01:59:16.775Z,42.60
2017-08-16T02:01:44.881Z,38.30
2017-08-16T02:04:12.980Z,47.63
2017-08-16T02:06:41.824Z,41.17
2017-08-16T02:09:09.926Z,42.33
2017-08-16T02:11:38.040Z,42.30
2017-08-16T02:14:06.155Z,48.87
2017-08-16T02:16:34.272Z,53.57
2017-08-16T02:19:03.264Z,41.77
2017-08-16T02:21:31.368Z,47.20
2017-08-16T02:23:59.458Z,43.10
2017-08-16T02:26:27.564Z,43.63
2017-08-16T02:28:56.437Z,40.47
2017-08-16T02:31:24.584Z,43.83
2017-08-16T02:33:52.661Z,45.20
2017-08-16T02:36:20.770Z,47.10
2017-08-16T02:38:48.852Z,41.00
2017-08-16T02:41:17.708Z,41.10
2017-08-16T02:43:45.815Z,42.10
2017-08-16T02:46:15.438Z,43.63
2017-08-16T02:48:43.584Z,41.40
2017-08-16T02:51:11.691Z,39.67
2017-08-16T02:53:39.786Z,42.03
2017-08-16T02:56:07.872Z,39.03
2017-08-16T02:58:35.984Z,49.27
2017-08-16T03:01:04.829Z,43.53
2017-08-16T03:03:32.952Z,44.53
2017-08-16T03:06:01.812Z,48.80
2017-08-16T03:08:29.907Z,43.90
2017-08-16T03:10:58.001Z,44.67
2017-08-16T03:13:26.107Z,48.03
2017-08-16T03:15:54.226Z,51.20
2017-08-16T03:18:22.315Z,47.10
2017-08-16T03:20:50.425Z,54.00
2017-08-16T03:23:18.527Z,52.10
2017-08-16T03:25:46.630Z,54.90
2017-08-16T03:28:14.736Z,54.10
2017-08-16T03:30:42.812Z,53.50
2017-08-16T03:33:10.908Z,56.57
2017-08-16T03:35:39.012Z,53.20
2017-08-16T03:38:07.101Z,48.83
2017-08-16T03:40:35.220Z,54.27
2017-08-16T03:43:03.296Z,51.03
2017-08-16T03:45:31.402Z,51.20
2017-08-16T03:47:59.488Z,53.77
2017-08-16T03:50:27.605Z,47.90
2017-08-16T03:52:55.704Z,50.97
2017-08-16T03:55:23.805Z,52.90
2017-08-16T03:57:53.841Z,49.40
2017-08-16T04:00:22.212Z,49.93
2017-08-16T04:02:56.226Z,54.97
2017-08-16T04:05:24.340Z,54.77
2017-08-16T04:07:56.091Z,55.10
2017-08-16T04:10:24.182Z,57.90
2017-08-16T04:12:52.295Z,62.70
2017-08-16T04:15:20.411Z,52.20
2017-08-16T04:17:48.536Z,56.23
2017-08-16T04:20:16.639Z,57.90
2017-08-16T04:22:44.724Z,66.73
2017-08-16T04:25:12.813Z,59.03
2017-08-16T04:27:40.963Z,64.27
2017-08-16T04:30:09.072Z,73.73
2017-08-16T04:32:37.945Z,64.00
2017-08-16T04:35:06.038Z,63.87
2017-08-16T04:37:34.899Z,69.23
2017-08-16T04:40:02.983Z,71.23
2017-08-16T04:42:31.108Z,76.40
2017-08-16T04:44:59.200Z,71.33
2017-08-16T04:47:27.279Z,80.63
2017-08-16T04:49:55.409Z,78.60
2017-08-16T04:52:23.526Z,91.87
2017-08-16T04:54:51.627Z,85.20
2017-08-16T04:57:20.495Z,97.70
2017-08-16T04:59:48.614Z,84.77
2017-08-16T05:02:16.723Z,83.10
2017-08-16T05:04:44.825Z,98.17
2017-08-16T05:07:12.927Z,92.93
2017-08-16T05:09:41.032Z,93.77
2017-08-16T05:12:09.150Z,95.07
2017-08-16T05:14:37.225Z,99.03
2017-08-16T05:17:06.117Z,92.23
2017-08-16T05:19:34.206Z,92.67
2017-08-16T05:22:02.308Z,99.80
2017-08-16T05:24:30.427Z,99.77
2017-08-16T05:27:01.955Z,91.27
2017-08-16T05:29:30.184Z,94.13
2017-08-16T05:31:59.220Z,97.90
2017-08-16T05:34:27.324Z,98.63
2017-08-16T05:36:55.417Z,98.97
2017-08-16T05:39:23.535Z,103.63
2017-08-16T05:41:51.631Z,96.13
2017-08-16T05:44:19.727Z,98.83
2017-08-16T05:46:47.824Z,102.70
2017-08-16T05:49:15.918Z,98.17
2017-08-16T05:51:44.014Z,97.73
2017-08-16T05:54:12.115Z,103.20
2017-08-16T05:56:40.224Z,106.03
2017-08-16T05:59:08.328Z,103.37
2017-08-16T06:01:36.440Z,113.97
2017-08-16T06:04:04.563Z,114.03
2017-08-16T06:06:32.643Z,113.03
2017-08-16T06:09:00.750Z,105.37
2017-08-16T06:11:28.855Z,97.77
2017-08-16T06:13:56.987Z,101.57
2017-08-16T06:16:25.155Z,105.40
2017-08-16T06:18:54.023Z,101.70
2017-08-16T06:21:22.123Z,106.53
2017-08-16T06:23:50.243Z,99.10
2017-08-16T06:26:21.783Z,97.73
2017-08-16T06:28:53.435Z,95.10
2017-08-16T06:31:21.540Z,93.40
2017-08-16T06:33:49.647Z,94.80
2017-08-16T06:36:18.536Z,86.23
2017-08-16T06:38:46.633Z,94.07
2017-08-16T06:41:15.495Z,84.53
2017-08-16T06:43:43.644Z,94.73
2017-08-16T06:46:11.720Z,84.23
2017-08-16T06:48:39.819Z,90.50
2017-08-16T06:51:07.964Z,88.53
2017-08-16T06:53:36.055Z,93.10
2017-08-16T06:56:04.159Z,87.03
2017-08-16T06:58:32.243Z,84.53
2017-08-16T07:01:00.348Z,74.77
2017-08-16T07:03:28.458Z,80.50
2017-08-16T07:05:56.527Z,74.23
2017-08-16T07:08:24.611Z,77.63
2017-08-16T07:10:52.723Z,80.80
2017-08-16T07:13:20.827Z,75.23
2017-08-16T07:15:48.927Z,70.17
2017-08-16T07:18:17.779Z,73.37
2017-08-16T07:20:45.859Z,65.00
2017-08-16T07:23:13.964Z,54.40
2017-08-16T07:25:45.698Z,55.97
2017-08-16T07:28:14.110Z,51.50
2017-08-16T07:30:42.225Z,50.60
2017-08-16T07:33:10.318Z,57.17
2017-08-16T07:35:38.415Z,51.17
2017-08-16T07:38:07.259Z,54.10
2017-08-16T07:40:35.343Z,44.10
2017-08-16T07:43:03.450Z,48.73
2017-08-16T07:45:32.324Z,40.90
2017-08-16T07:48:00.417Z,46.30
2017-08-16T07:50:33.525Z,54.10
2017-08-16T07:53:01.615Z,50.67
2017-08-16T07:55:29.695Z,44.83
2017-08-16T07:57:57.822Z,42.23
2017-08-16T08:00:26.674Z,39.33
2017-08-16T08:02:54.781Z,46.07
2017-08-16T08:05:22.894Z,41.40
2017-08-16T08:07:50.975Z,35.50
2017-08-16T08:10:19.063Z,56.83
2017-08-16T08:12:47.157Z,42.93
2017-08-16T08:15:16.059Z,52.77
2017-08-16T08:17:44.184Z,50.60
2017-08-16T08:20:12.280Z,37.83
2017-08-16T08:22:40.399Z,35.23
2017-08-16T08:25:08.488Z,33.73
2017-08-16T08:27:36.617Z,36.53
2017-08-16T08:30:04.735Z,44.97
2017-08-16T08:32:32.830Z,49.17
2017-08-16T08:35:00.939Z,48.73
2017-08-16T08:37:29.819Z,51.37
2017-08-16T08:39:57.907Z,48.80
2017-08-16T08:42:26.790Z,41.87
2017-08-16T08:44:55.684Z,41.47
2017-08-16T08:47:24.538Z,51.30
2017-08-16T08:49:52.643Z,37.10
2017-08-16T08:52:22.348Z,38.80
2017-08-16T08:54:50.459Z,33.70
2017-08-16T08:57:18.545Z,36.67
2017-08-16T08:59:46.648Z,35.27
2017-08-16T09:02:14.735Z,31.77
2017-08-16T09:04:42.841Z,31.57
2017-08-16T09:07:10.925Z,32.77
2017-08-16T09:09:39.034Z,31.97
2017-08-16T09:12:07.119Z,31.50
2017-08-16T09:14:35.226Z,29.93
2017-08-16T09:17:03.323Z,29.10
2017-08-16T09:19:31.436Z,30.40
2017-08-16T09:21:59.534Z,24.23
2017-08-16T09:24:27.611Z,29.37
2017-08-16T09:26:55.735Z,30.43
2017-08-16T09:29:23.835Z,32.23
2017-08-16T09:31:51.959Z,23.57
2017-08-16T09:34:20.068Z,27.77
2017-08-16T09:36:48.176Z,25.97
2017-08-16T09:39:16.311Z,27.37
2017-08-16T09:41:44.397Z,26.87
2017-08-16T09:44:12.503Z,24.00
2017-08-16T09:46:41.514Z,23.37
2017-08-16T09:49:09.619Z,25.60
2017-08-16T09:51:37.741Z,22.67
2017-08-16T09:54:05.864Z,22.80
2017-08-16T09:56:33.959Z,20.60
2017-08-16T09:59:02.087Z,19.13
2017-08-16T10:01:30.188Z,20.20
2017-08-16T10:03:58.276Z,23.90
2017-08-16T10:06:27.156Z,26.80
2017-08-16T10:08:59.451Z,18.63
2017-08-16T10:11:27.591Z,20.70
2017-08-16T10:13:58.931Z,20.00
2017-08-16T10:16:27.028Z,21.23
2017-08-16T10:18:55.892Z,22.10
2017-08-16T10:21:27.326Z,17.20
2017-08-16T10:23:55.412Z,17.60
2017-08-16T10:26:23.530Z,23.50
2017-08-16T10:28:51.659Z,18.93
2017-08-16T10:31:19.747Z,15.17
2017-08-16T10:33:47.855Z,17.07
2017-08-16T10:36:15.939Z,16.50
2017-08-16T10:38:44.056Z,16.03
2017-08-16T10:41:12.143Z,13.30
2017-08-16T10:43:40.219Z,12.97
2017-08-16T10:46:08.324Z,12.90
2017-08-16T10:48:36.435Z,11.63
2017-08-16T10:51:07.735Z,12.40
2017-08-16T10:53:35.843Z,11.83
2017-08-16T10:56:03.947Z,13.37
2017-08-16T10:58:32.034Z,13.13
2017-08-16T11:01:00.193Z,16.70
2017-08-16T11:03:29.324Z,15.67
2017-08-16T11:05:57.446Z,13.40
2017-08-16T11:08:25.548Z,13.70
2017-08-16T11:10:53.636Z,12.37
2017-08-16T11:13:21.736Z,10.77
2017-08-16T11:15:49.834Z,11.83
2017-08-16T11:18:17.944Z,10.10
2017-08-16T11:20:46.799Z,11.27
2017-08-16T11:23:14.910Z,20.27
2017-08-16T11:25:43.763Z,19.00
2017-08-16T11:28:11.867Z,13.93
2017-08-16T11:30:40.734Z,10.20
2017-08-16T11:33:08.822Z,14.97
2017-08-16T11:35:37.832Z,13.83
2017-08-16T11:38:05.923Z,14.10
2017-08-16T11:40:34.040Z,12.00
2017-08-16T11:43:02.170Z,11.67
2017-08-16T11:45:30.276Z,9.13
2017-08-16T11:47:58.363Z,11.97
2017-08-16T11:50:26.473Z,8.37
2017-08-16T11:52:54.573Z,8.90
2017-08-16T11:55:22.675Z,9.90
2017-08-16T11:57:50.779Z,10.23
2017-08-16T12:00:18.886Z,10.13
2017-08-16T12:02:46.996Z,22.23
2017-08-16T12:05:15.066Z,13.97
2017-08-16T12:07:43.164Z,13.40
2017-08-16T12:10:11.276Z,14.20
2017-08-16T12:12:39.404Z,12.13
2017-08-16T12:15:07.501Z,12.97
2017-08-16T12:17:35.596Z,12.87
2017-08-16T12:20:03.702Z,11.10
2017-08-16T12:22:31.821Z,12.50
2017-08-16T12:24:59.906Z,12.30
2017-08-16T12:27:29.910Z,9.40
2017-08-16T12:29:58.012Z,19.60
2017-08-16T12:32:26.302Z,16.60
2017-08-16T12:34:54.387Z,7.60
2017-08-16T12:37:22.455Z,8.60
2017-08-16T12:39:50.565Z,8.87
2017-08-16T12:42:18.672Z,9.83
2017-08-16T12:44:46.768Z,9.40
2017-08-16T12:47:14.864Z,10.27
2017-08-16T12:49:44.806Z,12.17
2017-08-16T12:52:12.910Z,9.33
2017-08-16T12:54:41.011Z,11.63
2017-08-16T12:57:09.117Z,6.57
2017-08-16T12:59:37.259Z,9.83
2017-08-16T13:02:05.364Z,9.03
2017-08-16T13:04:33.441Z,10.20
2017-08-16T13:07:01.540Z,6.23
2017-08-16T13:09:29.647Z,6.83
2017-08-16T13:11:57.719Z,5.97
2017-08-16T13:14:25.840Z,6.50
2017-08-16T13:16:53.918Z,11.10
2017-08-16T13:19:22.029Z,6.10
2017-08-16T13:21:50.107Z,8.17
2017-08-16T13:24:18.235Z,10.47
2017-08-16T13:26:46.337Z,9.70
2017-08-16T13:29:14.440Z,7.57
2017-08-16T13:31:43.316Z,6.63
2017-08-16T13:34:11.413Z,9.20
2017-08-16T13:36:41.115Z,7.83
2017-08-16T13:39:10.111Z,8.47
2017-08-16T13:41:38.967Z,11.03
2017-08-16T13:44:07.072Z,9.80
2017-08-16T13:46:35.148Z,9.70
2017-08-16T13:49:03.243Z,8.50
2017-08-16T13:51:31.324Z,9.90
2017-08-16T13:53:59.430Z,7.77
2017-08-16T13:56:28.551Z,8.97
2017-08-16T13:58:56.629Z,9.57
2017-08-16T14:01:24.720Z,9.80
2017-08-16T14:03:52.866Z,9.97
2017-08-16T14:06:22.009Z,10.80
2017-08-16T14:08:50.104Z,10.73
2017-08-16T14:11:18.229Z,8.63
2017-08-16T14:13:47.139Z,8.27
2017-08-16T14:16:15.226Z,8.60
2017-08-16T14:18:43.363Z,13.63
2017-08-16T14:21:11.479Z,14.20
2017-08-16T14:23:39.566Z,15.10
2017-08-16T14:26:07.647Z,13.60
2017-08-16T14:28:35.747Z,11.10
2017-08-16T14:31:04.615Z,9.90
2017-08-16T14:33:32.723Z,11.10
2017-08-16T14:36:00.821Z,22.20
2017-08-16T14:38:28.944Z,23.77
2017-08-16T14:40:57.787Z,12.60
2017-08-16T14:43:25.910Z,16.03
2017-08-16T14:45:54.020Z,14.37
2017-08-16T14:48:22.135Z,14.50
2017-08-16T14:50:50.269Z,15.67
2017-08-16T14:53:19.259Z,10.27
2017-08-16T14:55:47.386Z,17.83
2017-08-16T14:58:15.474Z,18.00
2017-08-16T15:00:44.500Z,13.97
2017-08-16T15:03:12.603Z,13.63
2017-08-16T15:05:40.705Z,14.47
2017-08-16T15:08:08.806Z,16.13
2017-08-16T15:10:36.887Z,13.50
2017-08-16T15:13:05.024Z,12.37
2017-08-16T15:15:33.097Z,12.70
2017-08-16T15:18:01.187Z,16.20
2017-08-16T15:20:29.294Z,13.23
2017-08-16T15:22:57.395Z,11.43
2017-08-16T15:25:25.520Z,11.47
2017-08-16T15:27:53.624Z,14.93
2017-08-16T15:30:21.713Z,15.07
2017-08-16T15:32:49.843Z,12.67
2017-08-16T15:35:17.943Z,12.13
2017-08-16T15:37:46.063Z,12.10
2017-08-16T15:40:14.905Z,12.00
2017-08-16T15:42:43.004Z,12.37
2017-08-16T15:45:11.115Z,15.10
2017-08-16T15:47:39.595Z,12.80
2017-08-16T15:50:07.673Z,10.70
2017-08-16T15:52:35.904Z,11.00
2017-08-16T15:55:07.456Z,11.93
2017-08-16T16:00:14.350Z,14.00
2017-08-16T16:02:51.421Z,12.53
2017-08-16T16:05:19.552Z,10.17
2017-08-16T16:07:48.380Z,9.20
2017-08-16T16:10:17.202Z,11.00
2017-08-16T16:12:51.694Z,11.00
2017-08-16T16:15:19.782Z,13.50
2017-08-16T16:17:47.899Z,15.93
2017-08-16T16:20:16.278Z,12.57
2017-08-16T16:22:44.445Z,10.90
2017-08-16T16:25:12.597Z,19.80
2017-08-16T16:27:41.064Z,22.03
2017-08-16T16:30:14.959Z,28.60
2017-08-16T16:32:43.176Z,12.37
2017-08-16T16:35:11.343Z,19.73
2017-08-16T16:37:39.505Z,23.80
2017-08-16T16:40:08.376Z,11.47
2017-08-16T16:42:36.476Z,14.03
2017-08-16T16:45:05.125Z,23.90
2017-08-16T16:47:34.201Z,26.50
2017-08-16T16:50:02.796Z,38.00
2017-08-16T16:52:34.595Z,29.23
2017-08-16T16:55:02.709Z,34.00
2017-08-16T16:57:31.199Z,31.03
2017-08-16T17:00:02.152Z,37.17
2017-08-16T17:02:30.577Z,38.40
2017-08-16T17:04:59.575Z,21.63
2017-08-16T17:07:27.696Z,23.30
2017-08-16T17:09:55.814Z,25.00
2017-08-16T17:12:24.004Z,15.73
2017-08-16T17:14:52.117Z,34.00
2017-08-16T17:17:21.039Z,19.63
2017-08-16T17:19:50.520Z,18.90
2017-08-16T17:22:29.228Z,22.70
2017-08-16T17:24:59.055Z,22.87
2017-08-16T17:27:29.472Z,17.93
2017-08-16T17:29:57.584Z,15.17
2017-08-16T17:32:26.458Z,14.87
2017-08-16T17:34:55.766Z,25.23
2017-08-16T17:37:23.974Z,15.13
2017-08-16T17:39:52.105Z,25.53
2017-08-16T17:42:22.019Z,21.53
2017-08-16T17:44:50.152Z,17.30
2017-08-16T17:47:21.487Z,18.10
2017-08-16T17:49:50.548Z,18.00
2017-08-16T17:52:19.415Z,17.00
2017-08-16T17:54:52.808Z,16.10
2017-08-16T17:57:21.708Z,15.20
2017-08-16T17:59:50.601Z,14.30
2017-08-16T18:02:18.755Z,16.43
2017-08-16T18:04:46.861Z,14.57
2017-08-16T18:07:14.962Z,18.37
2017-08-16T18:09:43.059Z,17.73
2017-08-16T18:12:11.180Z,13.97
2017-08-16T18:14:39.291Z,18.20
2017-08-16T18:17:10.465Z,14.90
2017-08-16T18:19:38.768Z,10.63
2017-08-16T18:22:06.996Z,11.23
2017-08-16T18:24:37.224Z,11.63
2017-08-16T18:27:05.338Z,13.67
2017-08-16T18:29:33.483Z,13.83
2017-08-16T18:32:01.573Z,13.53
2017-08-16T18:34:29.655Z,15.83
2017-08-16T18:36:57.763Z,12.13
2017-08-16T18:39:25.893Z,12.20
2017-08-16T18:41:53.986Z,22.83
2017-08-16T18:44:22.078Z,10.00
2017-08-16T18:46:50.185Z,11.47
2017-08-16T18:49:18.518Z,16.87
2017-08-16T18:51:46.706Z,11.73
2017-08-16T18:54:17.925Z,15.93
2017-08-16T18:56:47.804Z,18.00
2017-08-16T18:59:16.130Z,13.60
2017-08-16T19:01:45.036Z,13.40
2017-08-16T19:04:13.155Z,13.33
2017-08-16T19:06:41.273Z,11.40
2017-08-16T19:09:09.390Z,12.33
2017-08-16T19:11:37.464Z,16.40
2017-08-16T19:14:05.567Z,15.90
2017-08-16T19:16:33.655Z,13.90
2017-08-16T19:19:01.739Z,13.00
2017-08-16T19:21:30.529Z,12.83
2017-08-16T19:23:58.643Z,12.43
2017-08-16T19:26:26.722Z,16.93
2017-08-16T19:28:54.844Z,12.80
2017-08-16T19:31:23.543Z,13.23
2017-08-16T19:33:51.720Z,15.63
2017-08-16T19:36:19.803Z,15.07
2017-08-16T19:38:49.275Z,17.77
2017-08-16T19:41:17.384Z,17.87
2017-08-16T19:43:45.495Z,18.30
2017-08-16T19:46:13.689Z,16.63
2017-08-16T19:48:51.458Z,19.13
2017-08-16T19:51:19.603Z,13.63
2017-08-16T19:53:47.751Z,14.30
2017-08-16T19:56:15.873Z,12.80
2017-08-16T19:58:45.590Z,12.73
2017-08-16T20:01:13.780Z,14.77
2017-08-16T20:03:42.539Z,13.43
2017-08-16T20:06:14.032Z,12.77
2017-08-16T20:08:49.699Z,14.77
2017-08-16T20:11:17.808Z,17.27
2017-08-16T20:13:45.942Z,12.10
2017-08-16T20:16:15.906Z,18.57
2017-08-16T20:18:47.688Z,15.70
2017-08-16T20:21:17.372Z,14.10
2017-08-16T20:23:45.556Z,16.53
2017-08-16T20:26:17.395Z,11.70
2017-08-16T20:28:46.533Z,14.67
2017-08-16T20:31:15.300Z,16.73
2017-08-16T20:33:43.489Z,13.93
2017-08-16T20:36:13.195Z,13.50
2017-08-16T20:38:41.388Z,21.57
2017-08-16T20:41:09.552Z,11.67
2017-08-16T20:43:37.691Z,12.17
2017-08-16T20:46:07.883Z,15.93
2017-08-16T20:48:36.003Z,12.30
2017-08-16T20:51:04.123Z,16.40
2017-08-16T20:53:32.216Z,9.90
2017-08-16T20:56:00.420Z,16.63
2017-08-16T20:58:31.745Z,16.30
2017-08-16T21:00:59.852Z,17.10
2017-08-16T21:03:27.976Z,11.27
2017-08-16T21:05:56.355Z,10.70
2017-08-16T21:08:24.920Z,17.20
2017-08-16T21:10:53.065Z,21.07
2017-08-16T21:13:21.186Z,17.17
2017-08-16T21:15:49.328Z,19.50
2017-08-16T21:18:17.468Z,13.40
2017-08-16T21:20:45.551Z,16.07
2017-08-16T21:23:13.648Z,15.33
2017-08-16T21:25:41.755Z,11.77
2017-08-16T21:28:09.852Z,11.90
2017-08-16T21:30:37.976Z,10.90
2017-08-16T21:33:06.060Z,13.33
2017-08-16T21:35:34.187Z,12.03
2017-08-16T21:38:05.121Z,14.43
2017-08-16T21:40:33.293Z,12.40
2017-08-16T21:43:05.908Z,12.30
2017-08-16T21:45:34.024Z,14.00
2017-08-16T21:48:02.156Z,13.83
2017-08-16T21:50:30.420Z,14.27
2017-08-16T21:53:01.005Z,14.97
2017-08-16T21:55:36.154Z,14.13
2017-08-16T21:58:04.336Z,11.03
2017-08-16T22:00:32.507Z,17.90
2017-08-16T22:03:00.676Z,12.00
2017-08-16T22:05:28.823Z,11.10
2017-08-16T22:07:57.131Z,17.13
2017-08-16T22:10:27.163Z,14.30
2017-08-16T22:12:59.807Z,18.30
2017-08-16T22:15:27.991Z,14.83
2017-08-16T22:17:57.005Z,20.20
2017-08-16T22:20:25.132Z,14.07
2017-08-16T22:22:53.235Z,15.53
2017-08-16T22:25:21.343Z,10.80
2017-08-16T22:27:52.260Z,14.13
2017-08-16T22:30:20.350Z,16.43
2017-08-16T22:32:48.468Z,19.43
2017-08-16T22:35:17.496Z,11.97
2017-08-16T22:37:45.607Z,15.70
2017-08-16T22:40:15.907Z,16.57
2017-08-16T22:42:44.013Z,14.97
2017-08-16T22:45:12.123Z,15.23
2017-08-16T22:47:40.212Z,12.90
2017-08-16T22:50:08.307Z,14.77
2017-08-16T22:52:36.424Z,13.57
2017-08-16T22:55:08.057Z,15.67
2017-08-16T22:57:36.144Z,21.17
2017-08-16T23:00:04.265Z,16.73
2017-08-16T23:02:32.395Z,16.13
2017-08-16T23:05:03.594Z,16.27
2017-08-16T23:07:36.208Z,12.23
2017-08-16T23:10:08.007Z,20.83
2017-08-16T23:12:36.193Z,16.67
2017-08-16T23:15:04.311Z,12.63
2017-08-16T23:17:32.433Z,16.03
2017-08-16T23:20:04.040Z,11.40
2017-08-16T23:22:32.216Z,15.80
2017-08-16T23:25:01.067Z,13.17
2017-08-16T23:27:29.168Z,12.67
2017-08-16T23:29:57.264Z,12.67
2017-08-16T23:32:25.373Z,12.20
2017-08-16T23:34:54.245Z,18.30
2017-08-16T23:37:22.350Z,12.33
2017-08-16T23:39:51.363Z,11.47
2017-08-16T23:42:19.444Z,12.87
2017-08-16T23:44:47.552Z,12.80
2017-08-16T23:47:18.661Z,18.57
2017-08-16T23:49:46.762Z,11.60
2017-08-16T23:52:20.635Z,12.90
2017-08-16T23:54:48.737Z,15.33
2017-08-16T23:57:16.818Z,11.10
2017-08-16T23:59:44.922Z,9.90
